sensor_id;sensor_type;location;lat;lon;timestamp;temperature;humidity
83989;SHT30;74037;42.062;25.598;2023-11-21T00:02:22;4.55;79.65
83989;SHT30;74037;42.062;25.598;2023-11-21T00:04:48;4.48;79.16
83989;SHT30;74037;42.062;25.598;2023-11-21T00:07:15;4.44;79.34
83989;SHT30;74037;42.062;25.598;2023-11-21T00:09:41;4.57;79.59
83989;SHT30;74037;42.062;25.598;2023-11-21T00:12:08;4.45;80.22
83989;SHT30;74037;42.062;25.598;2023-11-21T00:14:37;4.20;80.08
83989;SHT30;74037;42.062;25.598;2023-11-21T00:17:03;4.16;80.45
83989;SHT30;74037;42.062;25.598;2023-11-21T00:19:29;4.24;79.83
83989;SHT30;74037;42.062;25.598;2023-11-21T00:21:54;4.22;80.19
83989;SHT30;74037;42.062;25.598;2023-11-21T00:24:20;4.25;79.80
83989;SHT30;74037;42.062;25.598;2023-11-21T00:26:45;4.21;79.88
83989;SHT30;74037;42.062;25.598;2023-11-21T00:29:11;4.16;80.24
83989;SHT30;74037;42.062;25.598;2023-11-21T00:31:36;4.22;80.02
83989;SHT30;74037;42.062;25.598;2023-11-21T00:34:05;4.18;78.93
83989;SHT30;74037;42.062;25.598;2023-11-21T00:36:33;4.10;79.65
83989;SHT30;74037;42.062;25.598;2023-11-21T00:38:59;4.04;79.63
83989;SHT30;74037;42.062;25.598;2023-11-21T00:41:25;4.09;80.58
83989;SHT30;74037;42.062;25.598;2023-11-21T00:43:53;4.09;80.19
83989;SHT30;74037;42.062;25.598;2023-11-21T00:46:19;4.01;80.20
83989;SHT30;74037;42.062;25.598;2023-11-21T00:48:44;3.97;80.37
83989;SHT30;74037;42.062;25.598;2023-11-21T00:51:10;3.91;79.53
83989;SHT30;74037;42.062;25.598;2023-11-21T00:53:35;3.94;81.00
83989;SHT30;74037;42.062;25.598;2023-11-21T00:56:01;3.90;81.23
83989;SHT30;74037;42.062;25.598;2023-11-21T00:58:26;3.91;80.80
83989;SHT30;74037;42.062;25.598;2023-11-21T01:00:52;3.94;80.32
83989;SHT30;74037;42.062;25.598;2023-11-21T01:03:18;4.01;79.78
83989;SHT30;74037;42.062;25.598;2023-11-21T01:05:44;4.06;79.83
83989;SHT30;74037;42.062;25.598;2023-11-21T01:08:10;3.94;79.68
83989;SHT30;74037;42.062;25.598;2023-11-21T01:10:36;3.94;80.22
83989;SHT30;74037;42.062;25.598;2023-11-21T01:13:02;3.86;80.45
83989;SHT30;74037;42.062;25.598;2023-11-21T01:15:31;3.82;80.64
83989;SHT30;74037;42.062;25.598;2023-11-21T01:17:57;3.89;79.96
83989;SHT30;74037;42.062;25.598;2023-11-21T01:20:22;3.82;79.85
83989;SHT30;74037;42.062;25.598;2023-11-21T01:22:48;3.79;80.14
83989;SHT30;74037;42.062;25.598;2023-11-21T01:25:16;3.69;80.72
83989;SHT30;74037;42.062;25.598;2023-11-21T01:27:42;3.65;80.75
83989;SHT30;74037;42.062;25.598;2023-11-21T01:30:09;3.69;80.85
83989;SHT30;74037;42.062;25.598;2023-11-21T01:32:36;3.65;80.50
83989;SHT30;74037;42.062;25.598;2023-11-21T01:35:02;3.42;81.27
83989;SHT30;74037;42.062;25.598;2023-11-21T01:37:28;3.46;81.48
83989;SHT30;74037;42.062;25.598;2023-11-21T01:39:54;3.58;81.69
83989;SHT30;74037;42.062;25.598;2023-11-21T01:42:20;3.59;80.86
83989;SHT30;74037;42.062;25.598;2023-11-21T01:44:46;3.58;80.42
83989;SHT30;74037;42.062;25.598;2023-11-21T01:47:11;3.54;80.13
83989;SHT30;74037;42.062;25.598;2023-11-21T01:49:38;3.59;80.53
83989;SHT30;74037;42.062;25.598;2023-11-21T01:52:04;3.55;80.47
83989;SHT30;74037;42.062;25.598;2023-11-21T01:54:29;3.40;81.60
83989;SHT30;74037;42.062;25.598;2023-11-21T01:56:58;3.39;80.93
83989;SHT30;74037;42.062;25.598;2023-11-21T01:59:35;3.46;81.40
83989;SHT30;74037;42.062;25.598;2023-11-21T02:02:02;3.36;81.51
83989;SHT30;74037;42.062;25.598;2023-11-21T02:04:27;3.32;82.00
83989;SHT30;74037;42.062;25.598;2023-11-21T02:06:53;3.25;82.67
83989;SHT30;74037;42.062;25.598;2023-11-21T02:09:25;3.12;83.01
83989;SHT30;74037;42.062;25.598;2023-11-21T02:11:51;3.12;82.31
83989;SHT30;74037;42.062;25.598;2023-11-21T02:14:16;3.02;81.61
83989;SHT30;74037;42.062;25.598;2023-11-21T02:16:45;3.05;80.91
83989;SHT30;74037;42.062;25.598;2023-11-21T02:19:21;3.07;81.76
83989;SHT30;74037;42.062;25.598;2023-11-21T02:21:52;3.09;82.06
83989;SHT30;74037;42.062;25.598;2023-11-21T02:24:22;3.08;82.30
83989;SHT30;74037;42.062;25.598;2023-11-21T02:26:51;3.02;82.48
83989;SHT30;74037;42.062;25.598;2023-11-21T02:29:20;3.14;81.55
83989;SHT30;74037;42.062;25.598;2023-11-21T02:31:53;3.12;81.85
83989;SHT30;74037;42.062;25.598;2023-11-21T02:34:20;3.05;82.20
83989;SHT30;74037;42.062;25.598;2023-11-21T02:36:46;3.04;82.40
83989;SHT30;74037;42.062;25.598;2023-11-21T02:39:15;2.97;82.20
83989;SHT30;74037;42.062;25.598;2023-11-21T02:41:40;3.00;83.01
83989;SHT30;74037;42.062;25.598;2023-11-21T02:44:06;3.02;82.40
83989;SHT30;74037;42.062;25.598;2023-11-21T02:46:33;3.04;82.30
83989;SHT30;74037;42.062;25.598;2023-11-21T02:49:02;3.02;82.67
83989;SHT30;74037;42.062;25.598;2023-11-21T02:51:28;2.98;82.94
83989;SHT30;74037;42.062;25.598;2023-11-21T02:53:54;2.84;83.35
83989;SHT30;74037;42.062;25.598;2023-11-21T02:56:20;2.95;82.81
83989;SHT30;74037;42.062;25.598;2023-11-21T02:58:46;2.90;82.90
83989;SHT30;74037;42.062;25.598;2023-11-21T03:01:11;2.85;83.26
83989;SHT30;74037;42.062;25.598;2023-11-21T03:03:38;2.84;83.71
83989;SHT30;74037;42.062;25.598;2023-11-21T03:06:05;2.77;84.23
83989;SHT30;74037;42.062;25.598;2023-11-21T03:08:31;2.79;83.27
83989;SHT30;74037;42.062;25.598;2023-11-21T03:10:57;2.76;83.20
83989;SHT30;74037;42.062;25.598;2023-11-21T03:13:23;2.70;84.58
83989;SHT30;74037;42.062;25.598;2023-11-21T03:15:48;2.70;84.30
83989;SHT30;74037;42.062;25.598;2023-11-21T03:18:14;2.68;84.52
83989;SHT30;74037;42.062;25.598;2023-11-21T03:20:39;2.65;84.13
83989;SHT30;74037;42.062;25.598;2023-11-21T03:23:05;2.64;83.98
83989;SHT30;74037;42.062;25.598;2023-11-21T03:25:30;2.54;85.11
83989;SHT30;74037;42.062;25.598;2023-11-21T03:27:56;2.60;84.08
83989;SHT30;74037;42.062;25.598;2023-11-21T03:30:22;2.65;83.82
83989;SHT30;74037;42.062;25.598;2023-11-21T03:32:47;2.41;85.24
83989;SHT30;74037;42.062;25.598;2023-11-21T03:35:13;2.39;85.87
83989;SHT30;74037;42.062;25.598;2023-11-21T03:37:38;2.46;85.44
83989;SHT30;74037;42.062;25.598;2023-11-21T03:40:07;2.53;84.79
83989;SHT30;74037;42.062;25.598;2023-11-21T03:42:34;2.49;84.10
83989;SHT30;74037;42.062;25.598;2023-11-21T03:44:59;2.46;83.85
83989;SHT30;74037;42.062;25.598;2023-11-21T03:47:26;2.47;84.49
83989;SHT30;74037;42.062;25.598;2023-11-21T03:49:51;2.39;84.85
83989;SHT30;74037;42.062;25.598;2023-11-21T03:52:17;2.46;85.56
83989;SHT30;74037;42.062;25.598;2023-11-21T03:54:42;2.43;84.62
83989;SHT30;74037;42.062;25.598;2023-11-21T03:57:08;2.40;84.02
83989;SHT30;74037;42.062;25.598;2023-11-21T03:59:34;2.41;84.15
83989;SHT30;74037;42.062;25.598;2023-11-21T04:02:00;2.34;84.54
83989;SHT30;74037;42.062;25.598;2023-11-21T04:04:25;2.40;84.30
83989;SHT30;74037;42.062;25.598;2023-11-21T04:06:51;2.37;83.29
83989;SHT30;74037;42.062;25.598;2023-11-21T04:09:19;2.33;83.67
83989;SHT30;74037;42.062;25.598;2023-11-21T04:11:44;2.26;84.79
83989;SHT30;74037;42.062;25.598;2023-11-21T04:14:11;2.12;85.39
83989;SHT30;74037;42.062;25.598;2023-11-21T04:16:36;2.15;84.72
83989;SHT30;74037;42.062;25.598;2023-11-21T04:19:02;2.22;83.93
83989;SHT30;74037;42.062;25.598;2023-11-21T04:21:27;2.27;83.91
83989;SHT30;74037;42.062;25.598;2023-11-21T04:23:52;2.23;83.72
83989;SHT30;74037;42.062;25.598;2023-11-21T04:26:18;2.12;84.17
83989;SHT30;74037;42.062;25.598;2023-11-21T04:28:43;2.22;83.81
83989;SHT30;74037;42.062;25.598;2023-11-21T04:31:10;2.19;83.65
83989;SHT30;74037;42.062;25.598;2023-11-21T04:33:35;2.20;83.74
83989;SHT30;74037;42.062;25.598;2023-11-21T04:36:01;2.23;83.69
83989;SHT30;74037;42.062;25.598;2023-11-21T04:38:26;2.16;83.71
83989;SHT30;74037;42.062;25.598;2023-11-21T04:40:51;2.22;83.26
83989;SHT30;74037;42.062;25.598;2023-11-21T04:43:17;2.13;83.18
83989;SHT30;74037;42.062;25.598;2023-11-21T04:45:42;2.16;83.01
83989;SHT30;74037;42.062;25.598;2023-11-21T04:48:08;2.13;83.34
83989;SHT30;74037;42.062;25.598;2023-11-21T04:50:34;2.01;83.89
83989;SHT30;74037;42.062;25.598;2023-11-21T04:53:00;1.98;84.12
83989;SHT30;74037;42.062;25.598;2023-11-21T04:55:25;2.06;83.91
83989;SHT30;74037;42.062;25.598;2023-11-21T04:57:53;2.10;83.49
83989;SHT30;74037;42.062;25.598;2023-11-21T05:00:19;2.15;82.86
83989;SHT30;74037;42.062;25.598;2023-11-21T05:02:46;2.15;82.88
83989;SHT30;74037;42.062;25.598;2023-11-21T05:05:12;2.13;82.85
83989;SHT30;74037;42.062;25.598;2023-11-21T05:07:39;2.08;83.23
83989;SHT30;74037;42.062;25.598;2023-11-21T05:10:08;2.09;83.72
83989;SHT30;74037;42.062;25.598;2023-11-21T05:12:37;2.15;83.46
83989;SHT30;74037;42.062;25.598;2023-11-21T05:15:07;2.16;83.49
83989;SHT30;74037;42.062;25.598;2023-11-21T05:17:35;2.13;83.54
83989;SHT30;74037;42.062;25.598;2023-11-21T05:20:00;2.17;83.56
83989;SHT30;74037;42.062;25.598;2023-11-21T05:22:29;2.27;82.84
83989;SHT30;74037;42.062;25.598;2023-11-21T05:24:54;2.32;82.67
83989;SHT30;74037;42.062;25.598;2023-11-21T05:27:19;2.37;81.96
83989;SHT30;74037;42.062;25.598;2023-11-21T05:29:45;2.40;81.88
83989;SHT30;74037;42.062;25.598;2023-11-21T05:32:10;2.46;81.69
83989;SHT30;74037;42.062;25.598;2023-11-21T05:34:36;2.49;81.59
83989;SHT30;74037;42.062;25.598;2023-11-21T05:37:01;2.54;81.29
83989;SHT30;74037;42.062;25.598;2023-11-21T05:39:27;2.67;80.86
83989;SHT30;74037;42.062;25.598;2023-11-21T05:41:53;2.70;81.10
83989;SHT30;74037;42.062;25.598;2023-11-21T05:44:19;2.84;81.06
83989;SHT30;74037;42.062;25.598;2023-11-21T05:46:44;2.94;80.38
83989;SHT30;74037;42.062;25.598;2023-11-21T05:49:10;2.92;80.60
83989;SHT30;74037;42.062;25.598;2023-11-21T05:51:37;3.04;80.15
83989;SHT30;74037;42.062;25.598;2023-11-21T05:54:03;3.07;80.08
83989;SHT30;74037;42.062;25.598;2023-11-21T05:56:28;3.15;80.06
83989;SHT30;74037;42.062;25.598;2023-11-21T05:58:54;3.12;79.90
83989;SHT30;74037;42.062;25.598;2023-11-21T06:01:19;3.21;79.87
83989;SHT30;74037;42.062;25.598;2023-11-21T06:03:45;3.31;79.92
83989;SHT30;74037;42.062;25.598;2023-11-21T06:06:10;3.39;79.69
83989;SHT30;74037;42.062;25.598;2023-11-21T06:08:36;3.45;79.42
83989;SHT30;74037;42.062;25.598;2023-11-21T06:11:01;3.66;78.96
83989;SHT30;74037;42.062;25.598;2023-11-21T06:13:27;3.76;78.66
83989;SHT30;74037;42.062;25.598;2023-11-21T06:15:53;3.90;78.70
83989;SHT30;74037;42.062;25.598;2023-11-21T06:18:19;3.90;78.80
83989;SHT30;74037;42.062;25.598;2023-11-21T06:20:47;3.91;79.00
83989;SHT30;74037;42.062;25.598;2023-11-21T06:23:13;3.99;78.90
83989;SHT30;74037;42.062;25.598;2023-11-21T06:25:39;4.07;79.07
83989;SHT30;74037;42.062;25.598;2023-11-21T06:28:05;4.20;78.50
83989;SHT30;74037;42.062;25.598;2023-11-21T06:30:31;4.27;78.69
83989;SHT30;74037;42.062;25.598;2023-11-21T06:32:57;4.30;78.29
83989;SHT30;74037;42.062;25.598;2023-11-21T06:35:22;4.18;78.82
83989;SHT30;74037;42.062;25.598;2023-11-21T06:37:48;4.22;78.59
83989;SHT30;74037;42.062;25.598;2023-11-21T06:40:14;4.45;78.00
83989;SHT30;74037;42.062;25.598;2023-11-21T06:42:41;4.60;77.96
83989;SHT30;74037;42.062;25.598;2023-11-21T06:45:07;4.74;77.62
83989;SHT30;74037;42.062;25.598;2023-11-21T06:47:33;4.88;77.41
83989;SHT30;74037;42.062;25.598;2023-11-21T06:49:59;4.96;76.91
83989;SHT30;74037;42.062;25.598;2023-11-21T06:52:25;5.00;77.12
83989;SHT30;74037;42.062;25.598;2023-11-21T06:54:51;5.16;76.59
83989;SHT30;74037;42.062;25.598;2023-11-21T06:57:17;5.16;76.83
83989;SHT30;74037;42.062;25.598;2023-11-21T06:59:42;5.29;76.59
83989;SHT30;74037;42.062;25.598;2023-11-21T07:02:08;5.40;76.40
83989;SHT30;74037;42.062;25.598;2023-11-21T07:04:35;5.44;76.35
83989;SHT30;74037;42.062;25.598;2023-11-21T07:07:02;5.56;76.44
83989;SHT30;74037;42.062;25.598;2023-11-21T07:09:27;5.74;76.39
83989;SHT30;74037;42.062;25.598;2023-11-21T07:11:53;5.86;76.62
83989;SHT30;74037;42.062;25.598;2023-11-21T07:14:19;6.08;75.96
83989;SHT30;74037;42.062;25.598;2023-11-21T07:16:45;6.04;76.43
83989;SHT30;74037;42.062;25.598;2023-11-21T07:19:11;6.21;76.24
83989;SHT30;74037;42.062;25.598;2023-11-21T07:21:38;6.35;76.19
83989;SHT30;74037;42.062;25.598;2023-11-21T07:24:05;6.50;75.88
83989;SHT30;74037;42.062;25.598;2023-11-21T07:26:35;6.66;75.25
83989;SHT30;74037;42.062;25.598;2023-11-21T07:29:01;6.73;75.59
83989;SHT30;74037;42.062;25.598;2023-11-21T07:31:28;6.69;76.09
83989;SHT30;74037;42.062;25.598;2023-11-21T07:33:54;6.76;76.32
83989;SHT30;74037;42.062;25.598;2023-11-21T07:36:19;6.80;76.64
83989;SHT30;74037;42.062;25.598;2023-11-21T07:38:48;6.83;76.89
83989;SHT30;74037;42.062;25.598;2023-11-21T07:41:14;6.96;77.17
83989;SHT30;74037;42.062;25.598;2023-11-21T07:43:43;7.07;77.29
83989;SHT30;74037;42.062;25.598;2023-11-21T07:46:10;7.18;77.11
83989;SHT30;74037;42.062;25.598;2023-11-21T07:48:35;7.30;77.09
83989;SHT30;74037;42.062;25.598;2023-11-21T07:51:02;7.40;76.84
83989;SHT30;74037;42.062;25.598;2023-11-21T07:53:29;7.44;77.07
83989;SHT30;74037;42.062;25.598;2023-11-21T07:55:58;7.61;76.75
83989;SHT30;74037;42.062;25.598;2023-11-21T07:58:27;7.79;76.43
83989;SHT30;74037;42.062;25.598;2023-11-21T08:00:53;7.83;76.51
83989;SHT30;74037;42.062;25.598;2023-11-21T08:03:19;7.96;76.62
83989;SHT30;74037;42.062;25.598;2023-11-21T08:05:44;8.07;76.72
83989;SHT30;74037;42.062;25.598;2023-11-21T08:08:10;8.13;76.55
83989;SHT30;74037;42.062;25.598;2023-11-21T08:10:35;8.26;76.60
83989;SHT30;74037;42.062;25.598;2023-11-21T08:13:02;8.39;76.41
83989;SHT30;74037;42.062;25.598;2023-11-21T08:15:27;8.52;76.23
83989;SHT30;74037;42.062;25.598;2023-11-21T08:17:52;8.63;76.24
83989;SHT30;74037;42.062;25.598;2023-11-21T08:20:18;8.80;76.20
83989;SHT30;74037;42.062;25.598;2023-11-21T08:22:44;8.88;75.85
83989;SHT30;74037;42.062;25.598;2023-11-21T08:25:10;9.04;76.02
83989;SHT30;74037;42.062;25.598;2023-11-21T08:27:36;9.11;75.80
83989;SHT30;74037;42.062;25.598;2023-11-21T08:30:05;9.24;75.70
83989;SHT30;74037;42.062;25.598;2023-11-21T08:32:30;9.43;75.60
83989;SHT30;74037;42.062;25.598;2023-11-21T08:34:58;9.46;75.03
83989;SHT30;74037;42.062;25.598;2023-11-21T08:37:24;9.66;74.85
83989;SHT30;74037;42.062;25.598;2023-11-21T08:39:49;9.78;74.62
83989;SHT30;74037;42.062;25.598;2023-11-21T08:42:15;9.87;74.72
83989;SHT30;74037;42.062;25.598;2023-11-21T08:44:41;9.83;74.84
83989;SHT30;74037;42.062;25.598;2023-11-21T08:47:06;9.80;74.96
83989;SHT30;74037;42.062;25.598;2023-11-21T08:49:32;9.93;74.89
83989;SHT30;74037;42.062;25.598;2023-11-21T08:51:58;10.07;74.79
83989;SHT30;74037;42.062;25.598;2023-11-21T08:54:26;10.14;74.76
83989;SHT30;74037;42.062;25.598;2023-11-21T08:56:52;10.23;74.45
83989;SHT30;74037;42.062;25.598;2023-11-21T08:59:18;10.38;74.33
83989;SHT30;74037;42.062;25.598;2023-11-21T09:01:45;10.60;73.81
83989;SHT30;74037;42.062;25.598;2023-11-21T09:04:10;10.68;73.51
83989;SHT30;74037;42.062;25.598;2023-11-21T09:06:36;10.61;73.34
83989;SHT30;74037;42.062;25.598;2023-11-21T09:09:01;10.78;73.27
83989;SHT30;74037;42.062;25.598;2023-11-21T09:11:27;10.92;73.13
83989;SHT30;74037;42.062;25.598;2023-11-21T09:13:58;10.97;72.56
83989;SHT30;74037;42.062;25.598;2023-11-21T09:16:24;10.98;72.59
83989;SHT30;74037;42.062;25.598;2023-11-21T09:18:50;11.04;72.37
83989;SHT30;74037;42.062;25.598;2023-11-21T09:21:15;11.19;72.09
83989;SHT30;74037;42.062;25.598;2023-11-21T09:23:44;11.32;71.55
83989;SHT30;74037;42.062;25.598;2023-11-21T09:26:09;11.52;70.95
83989;SHT30;74037;42.062;25.598;2023-11-21T09:28:35;11.69;70.54
83989;SHT30;74037;42.062;25.598;2023-11-21T09:31:03;11.71;70.51
83989;SHT30;74037;42.062;25.598;2023-11-21T09:33:29;11.77;70.64
83989;SHT30;74037;42.062;25.598;2023-11-21T09:35:56;12.07;69.82
83989;SHT30;74037;42.062;25.598;2023-11-21T09:38:22;12.01;69.94
83989;SHT30;74037;42.062;25.598;2023-11-21T09:40:48;12.01;70.02
83989;SHT30;74037;42.062;25.598;2023-11-21T09:43:18;12.03;70.08
83989;SHT30;74037;42.062;25.598;2023-11-21T09:45:58;12.34;69.33
83989;SHT30;74037;42.062;25.598;2023-11-21T09:48:25;12.38;69.40
83989;SHT30;74037;42.062;25.598;2023-11-21T09:50:53;12.58;68.73
83989;SHT30;74037;42.062;25.598;2023-11-21T09:53:20;12.52;69.11
83989;SHT30;74037;42.062;25.598;2023-11-21T09:55:48;12.75;68.57
83989;SHT30;74037;42.062;25.598;2023-11-21T09:58:16;12.78;68.33
83989;SHT30;74037;42.062;25.598;2023-11-21T10:00:46;12.81;68.30
83989;SHT30;74037;42.062;25.598;2023-11-21T10:03:13;12.96;68.24
83989;SHT30;74037;42.062;25.598;2023-11-21T10:05:40;13.02;67.97
83989;SHT30;74037;42.062;25.598;2023-11-21T10:08:09;13.19;67.74
83989;SHT30;74037;42.062;25.598;2023-11-21T10:10:45;13.43;67.01
83989;SHT30;74037;42.062;25.598;2023-11-21T10:13:12;13.50;66.69
83989;SHT30;74037;42.062;25.598;2023-11-21T10:15:41;13.57;66.69
83989;SHT30;74037;42.062;25.598;2023-11-21T10:18:09;13.69;66.20
83989;SHT30;74037;42.062;25.598;2023-11-21T10:20:35;13.51;66.79
83989;SHT30;74037;42.062;25.598;2023-11-21T10:23:03;13.51;66.95
83989;SHT30;74037;42.062;25.598;2023-11-21T10:25:30;13.56;66.32
83989;SHT30;74037;42.062;25.598;2023-11-21T10:28:01;13.77;65.01
83989;SHT30;74037;42.062;25.598;2023-11-21T10:30:34;13.98;64.34
83989;SHT30;74037;42.062;25.598;2023-11-21T10:33:07;14.02;63.73
83989;SHT30;74037;42.062;25.598;2023-11-21T10:35:42;14.21;63.33
83989;SHT30;74037;42.062;25.598;2023-11-21T10:38:08;14.25;62.80
83989;SHT30;74037;42.062;25.598;2023-11-21T10:40:38;14.35;62.39
83989;SHT30;74037;42.062;25.598;2023-11-21T10:43:08;14.51;62.09
83989;SHT30;74037;42.062;25.598;2023-11-21T10:45:39;14.73;60.93
83989;SHT30;74037;42.062;25.598;2023-11-21T10:48:09;14.79;60.81
83989;SHT30;74037;42.062;25.598;2023-11-21T10:50:36;14.96;60.31
83989;SHT30;74037;42.062;25.598;2023-11-21T10:53:05;15.06;59.89
83989;SHT30;74037;42.062;25.598;2023-11-21T10:55:32;15.10;59.75
83989;SHT30;74037;42.062;25.598;2023-11-21T10:58:04;15.16;59.77
83989;SHT30;74037;42.062;25.598;2023-11-21T11:00:31;15.13;60.06
83989;SHT30;74037;42.062;25.598;2023-11-21T11:02:57;15.24;60.45
83989;SHT30;74037;42.062;25.598;2023-11-21T11:05:26;15.31;60.44
83989;SHT30;74037;42.062;25.598;2023-11-21T11:07:58;15.37;60.59
83989;SHT30;74037;42.062;25.598;2023-11-21T11:10:27;15.40;60.28
83989;SHT30;74037;42.062;25.598;2023-11-21T11:12:53;15.46;60.40
83989;SHT30;74037;42.062;25.598;2023-11-21T11:15:20;15.50;60.33
83989;SHT30;74037;42.062;25.598;2023-11-21T11:17:46;15.54;60.35
83989;SHT30;74037;42.062;25.598;2023-11-21T11:20:14;15.36;61.06
83989;SHT30;74037;42.062;25.598;2023-11-21T11:28:22;15.58;61.07
83989;SHT30;74037;42.062;25.598;2023-11-21T11:33:41;15.67;61.00
83989;SHT30;74037;42.062;25.598;2023-11-21T11:38:59;15.47;62.08
83989;SHT30;74037;42.062;25.598;2023-11-21T11:41:30;15.40;62.06
83989;SHT30;74037;42.062;25.598;2023-11-21T11:43:58;15.24;62.78
83989;SHT30;74037;42.062;25.598;2023-11-21T11:46:42;15.16;63.16
83989;SHT30;74037;42.062;25.598;2023-11-21T11:49:07;15.17;63.25
83989;SHT30;74037;42.062;25.598;2023-11-21T11:51:33;15.28;63.04
83989;SHT30;74037;42.062;25.598;2023-11-21T11:54:01;15.48;62.38
83989;SHT30;74037;42.062;25.598;2023-11-21T11:56:31;15.58;62.00
83989;SHT30;74037;42.062;25.598;2023-11-21T11:59:01;15.40;62.62
83989;SHT30;74037;42.062;25.598;2023-11-21T12:01:34;15.36;62.79
83989;SHT30;74037;42.062;25.598;2023-11-21T12:06:45;15.20;62.42
83989;SHT30;74037;42.062;25.598;2023-11-21T12:09:23;15.30;62.44
83989;SHT30;74037;42.062;25.598;2023-11-21T12:11:50;15.37;61.56
83989;SHT30;74037;42.062;25.598;2023-11-21T12:14:16;15.23;62.14
83989;SHT30;74037;42.062;25.598;2023-11-21T12:16:43;15.11;62.58
83989;SHT30;74037;42.062;25.598;2023-11-21T12:19:10;15.02;62.89
83989;SHT30;74037;42.062;25.598;2023-11-21T12:21:36;14.90;63.02
83989;SHT30;74037;42.062;25.598;2023-11-21T12:24:02;14.85;63.06
83989;SHT30;74037;42.062;25.598;2023-11-21T12:26:28;14.82;63.20
83989;SHT30;74037;42.062;25.598;2023-11-21T12:28:54;14.90;62.89
83989;SHT30;74037;42.062;25.598;2023-11-21T12:31:25;14.86;63.07
83989;SHT30;74037;42.062;25.598;2023-11-21T12:33:50;14.77;63.40
83989;SHT30;74037;42.062;25.598;2023-11-21T12:36:16;14.80;63.38
83989;SHT30;74037;42.062;25.598;2023-11-21T12:38:42;14.72;63.92
83989;SHT30;74037;42.062;25.598;2023-11-21T12:41:09;14.80;63.66
83989;SHT30;74037;42.062;25.598;2023-11-21T12:43:35;14.86;63.72
83989;SHT30;74037;42.062;25.598;2023-11-21T12:46:08;14.83;63.81
83989;SHT30;74037;42.062;25.598;2023-11-21T12:48:37;14.72;64.03
83989;SHT30;74037;42.062;25.598;2023-11-21T12:51:05;14.65;64.57
83989;SHT30;74037;42.062;25.598;2023-11-21T12:53:32;14.54;65.12
83989;SHT30;74037;42.062;25.598;2023-11-21T12:56:05;14.46;65.17
83989;SHT30;74037;42.062;25.598;2023-11-21T12:58:31;14.42;65.20
83989;SHT30;74037;42.062;25.598;2023-11-21T13:00:59;14.38;65.43
83989;SHT30;74037;42.062;25.598;2023-11-21T13:03:25;14.32;65.66
83989;SHT30;74037;42.062;25.598;2023-11-21T13:05:53;14.28;65.86
83989;SHT30;74037;42.062;25.598;2023-11-21T13:08:25;14.20;66.01
83989;SHT30;74037;42.062;25.598;2023-11-21T13:10:52;14.14;66.15
83989;SHT30;74037;42.062;25.598;2023-11-21T13:13:19;14.11;66.15
83989;SHT30;74037;42.062;25.598;2023-11-21T13:16:15;14.10;66.41
83989;SHT30;74037;42.062;25.598;2023-11-21T13:18:40;14.11;66.34
83989;SHT30;74037;42.062;25.598;2023-11-21T13:21:08;14.05;66.58
83989;SHT30;74037;42.062;25.598;2023-11-21T13:23:41;14.04;66.91
83989;SHT30;74037;42.062;25.598;2023-11-21T13:26:08;14.02;67.03
83989;SHT30;74037;42.062;25.598;2023-11-21T13:28:34;14.07;66.79
83989;SHT30;74037;42.062;25.598;2023-11-21T13:31:01;14.04;66.67
83989;SHT30;74037;42.062;25.598;2023-11-21T13:33:48;14.07;66.64
83989;SHT30;74037;42.062;25.598;2023-11-21T13:36:24;14.01;67.02
83989;SHT30;74037;42.062;25.598;2023-11-21T13:38:51;14.02;67.03
83989;SHT30;74037;42.062;25.598;2023-11-21T13:41:18;13.98;67.20
83989;SHT30;74037;42.062;25.598;2023-11-21T13:43:44;14.00;67.32
83989;SHT30;74037;42.062;25.598;2023-11-21T13:46:18;13.97;67.33
83989;SHT30;74037;42.062;25.598;2023-11-21T13:48:49;13.90;67.46
83989;SHT30;74037;42.062;25.598;2023-11-21T13:51:22;13.90;67.81
83989;SHT30;74037;42.062;25.598;2023-11-21T13:53:56;13.85;68.58
83989;SHT30;74037;42.062;25.598;2023-11-21T13:56:22;13.91;70.13
83989;SHT30;74037;42.062;25.598;2023-11-21T13:58:49;14.02;73.16
83989;SHT30;74037;42.062;25.598;2023-11-21T14:01:26;14.24;75.36
83989;SHT30;74037;42.062;25.598;2023-11-21T14:03:56;14.31;75.83
83989;SHT30;74037;42.062;25.598;2023-11-21T14:06:46;14.34;76.62
83989;SHT30;74037;42.062;25.598;2023-11-21T14:09:17;14.38;77.00
83989;SHT30;74037;42.062;25.598;2023-11-21T14:11:54;14.35;77.14
83989;SHT30;74037;42.062;25.598;2023-11-21T14:14:24;14.25;77.44
83989;SHT30;74037;42.062;25.598;2023-11-21T14:16:51;14.20;77.77
83989;SHT30;74037;42.062;25.598;2023-11-21T14:19:18;14.29;77.75
83989;SHT30;74037;42.062;25.598;2023-11-21T14:21:47;14.12;78.05
83989;SHT30;74037;42.062;25.598;2023-11-21T14:24:14;14.07;79.01
83989;SHT30;74037;42.062;25.598;2023-11-21T14:26:43;14.02;78.79
83989;SHT30;74037;42.062;25.598;2023-11-21T14:29:10;13.87;79.58
83989;SHT30;74037;42.062;25.598;2023-11-21T14:31:39;13.77;76.93
83989;SHT30;74037;42.062;25.598;2023-11-21T14:34:05;13.59;76.39
83989;SHT30;74037;42.062;25.598;2023-11-21T14:36:32;13.47;76.26
83989;SHT30;74037;42.062;25.598;2023-11-21T14:38:58;13.35;76.61
83989;SHT30;74037;42.062;25.598;2023-11-21T14:41:23;13.23;77.03
83989;SHT30;74037;42.062;25.598;2023-11-21T14:43:50;13.10;77.51
83989;SHT30;74037;42.062;25.598;2023-11-21T14:46:16;13.00;77.94
83989;SHT30;74037;42.062;25.598;2023-11-21T14:48:45;12.91;78.28
83989;SHT30;74037;42.062;25.598;2023-11-21T14:51:24;12.82;78.79
83989;SHT30;74037;42.062;25.598;2023-11-21T14:53:58;12.74;78.90
83989;SHT30;74037;42.062;25.598;2023-11-21T14:56:33;12.66;79.08
83989;SHT30;74037;42.062;25.598;2023-11-21T14:59:01;12.62;79.40
83989;SHT30;74037;42.062;25.598;2023-11-21T15:01:41;12.58;79.52
83989;SHT30;74037;42.062;25.598;2023-11-21T15:04:20;12.55;80.00
83989;SHT30;74037;42.062;25.598;2023-11-21T15:06:59;12.55;80.11
83989;SHT30;74037;42.062;25.598;2023-11-21T15:09:25;12.54;80.42
83989;SHT30;74037;42.062;25.598;2023-11-21T15:11:56;12.52;80.61
83989;SHT30;74037;42.062;25.598;2023-11-21T15:14:28;12.48;80.77
83989;SHT30;74037;42.062;25.598;2023-11-21T15:16:57;12.33;81.19
83989;SHT30;74037;42.062;25.598;2023-11-21T15:19:25;12.31;81.32
83989;SHT30;74037;42.062;25.598;2023-11-21T15:21:51;12.27;81.72
83989;SHT30;74037;42.062;25.598;2023-11-21T15:24:17;12.13;81.92
83989;SHT30;74037;42.062;25.598;2023-11-21T15:26:42;12.03;82.22
83989;SHT30;74037;42.062;25.598;2023-11-21T15:29:08;12.03;82.76
83989;SHT30;74037;42.062;25.598;2023-11-21T15:31:54;11.98;82.99
83989;SHT30;74037;42.062;25.598;2023-11-21T15:34:21;11.89;83.25
83989;SHT30;74037;42.062;25.598;2023-11-21T15:36:47;11.81;83.84
83989;SHT30;74037;42.062;25.598;2023-11-21T15:39:20;11.71;84.08
83989;SHT30;74037;42.062;25.598;2023-11-21T15:41:54;11.65;84.58